createdAt,value
2023-01-27T00:02:32.637Z,14.40
2023-01-27T00:05:22.276Z,13.20
2023-01-27T00:08:10.984Z,14.10
2023-01-27T00:11:19.084Z,14.00
2023-01-27T00:14:07.874Z,14.20
2023-01-27T00:16:57.059Z,13.10
2023-01-27T00:19:46.177Z,12.60
2023-01-27T00:22:56.755Z,10.70
2023-01-27T00:25:50.321Z,10.30
2023-01-27T00:28:40.313Z,11.80
2023-01-27T00:31:47.924Z,13.40
2023-01-27T00:34:36.802Z,12.90
2023-01-27T00:37:26.655Z,13.00
2023-01-27T00:40:16.462Z,11.80
2023-01-27T00:43:05.325Z,12.30
2023-01-27T00:45:54.000Z,11.70
2023-01-27T00:48:42.717Z,11.20
2023-01-27T00:51:31.426Z,11.00
2023-01-27T00:54:22.748Z,11.10
2023-01-27T00:57:11.478Z,11.80
2023-01-27T01:00:00.249Z,10.10
2023-01-27T01:02:48.989Z,9.30
2023-01-27T01:05:37.827Z,10.30
2023-01-27T01:08:26.790Z,8.20
2023-01-27T01:11:16.261Z,8.70
2023-01-27T01:14:04.941Z,8.40
2023-01-27T01:16:56.297Z,8.90
2023-01-27T01:19:45.009Z,9.00
2023-01-27T01:22:33.807Z,8.40
2023-01-27T01:25:22.501Z,10.10
2023-01-27T01:28:11.628Z,9.90
2023-01-27T01:31:07.497Z,8.90
2023-01-27T01:33:56.273Z,9.90
2023-01-27T01:36:45.044Z,10.10
2023-01-27T01:39:33.865Z,10.10
2023-01-27T01:42:22.518Z,10.30
2023-01-27T01:45:30.064Z,9.20
2023-01-27T01:48:23.096Z,8.40
2023-01-27T01:51:21.707Z,9.20
2023-01-27T01:54:18.597Z,9.90
2023-01-27T01:57:13.342Z,8.40
2023-01-27T02:00:07.185Z,8.90
2023-01-27T02:03:06.088Z,9.20
2023-01-27T02:05:54.866Z,9.30
2023-01-27T02:08:46.232Z,9.20
2023-01-27T02:11:35.588Z,8.90
2023-01-27T02:14:25.233Z,7.90
2023-01-27T02:17:15.693Z,9.20
2023-01-27T02:20:29.466Z,9.40
2023-01-27T02:23:23.923Z,9.20
2023-01-27T02:26:20.430Z,8.30
2023-01-27T02:29:14.558Z,9.80
2023-01-27T02:32:03.275Z,9.10
2023-01-27T02:34:52.465Z,9.60
2023-01-27T02:37:42.351Z,10.00
2023-01-27T02:40:31.167Z,8.80
2023-01-27T02:43:19.946Z,10.20
2023-01-27T02:46:08.718Z,8.90
2023-01-27T02:48:57.484Z,9.50
2023-01-27T02:51:46.584Z,7.80
2023-01-27T02:54:35.760Z,9.10
2023-01-27T02:57:24.422Z,8.90
2023-01-27T03:00:25.299Z,8.50
2023-01-27T03:03:14.308Z,8.60
2023-01-27T03:06:06.868Z,9.90
2023-01-27T03:08:55.827Z,9.60
2023-01-27T03:12:03.181Z,10.30
2023-01-27T03:15:11.427Z,9.90
2023-01-27T03:18:16.105Z,9.20
2023-01-27T03:21:07.155Z,8.90
2023-01-27T03:23:55.871Z,8.50
2023-01-27T03:26:44.678Z,9.10
2023-01-27T03:29:54.164Z,10.60
2023-01-27T03:32:48.668Z,10.20
2023-01-27T03:36:14.379Z,10.20
2023-01-27T03:39:29.425Z,9.80
2023-01-27T03:42:37.462Z,10.40
2023-01-27T03:45:45.053Z,9.80
2023-01-27T03:48:34.272Z,9.70
2023-01-27T03:51:24.466Z,8.80
2023-01-27T03:54:13.149Z,8.40
2023-01-27T03:57:06.289Z,8.80
2023-01-27T03:59:55.468Z,9.90
2023-01-27T04:03:02.599Z,9.60
2023-01-27T04:06:09.740Z,8.60
2023-01-27T04:08:58.616Z,8.80
2023-01-27T04:11:56.496Z,9.50
2023-01-27T04:14:45.463Z,8.90
2023-01-27T04:17:38.980Z,9.30
2023-01-27T04:20:27.823Z,9.40
2023-01-27T04:23:16.425Z,9.10
2023-01-27T04:26:05.259Z,8.70
2023-01-27T04:28:54.126Z,8.90
2023-01-27T04:31:43.202Z,9.50
2023-01-27T04:34:32.910Z,8.60
2023-01-27T04:37:21.789Z,8.70
2023-01-27T04:40:12.253Z,7.40
2023-01-27T04:43:01.073Z,8.50
2023-01-27T04:45:49.845Z,8.40
2023-01-27T04:48:38.762Z,8.20
2023-01-27T04:51:27.647Z,9.00
2023-01-27T04:54:16.623Z,8.80
2023-01-27T04:57:05.686Z,9.10
2023-01-27T04:59:54.404Z,8.30
2023-01-27T05:02:43.510Z,8.60
2023-01-27T05:05:34.602Z,8.60
2023-01-27T05:08:23.332Z,9.50
2023-01-27T05:11:12.062Z,9.30
2023-01-27T05:14:01.777Z,9.30
2023-01-27T05:16:50.536Z,9.50
2023-01-27T05:19:39.215Z,9.80
2023-01-27T05:22:28.028Z,8.60
2023-01-27T05:25:16.928Z,7.80
2023-01-27T05:28:06.222Z,8.20
2023-01-27T05:31:01.857Z,8.90
2023-01-27T05:33:52.031Z,8.80
2023-01-27T05:36:40.871Z,8.50
2023-01-27T05:39:29.693Z,8.50
2023-01-27T05:42:19.307Z,9.20
2023-01-27T05:45:08.844Z,9.10
2023-01-27T05:47:57.685Z,8.60
2023-01-27T05:50:54.772Z,9.40
2023-01-27T05:53:43.906Z,10.00
2023-01-27T05:56:33.524Z,9.50
2023-01-27T05:59:22.493Z,10.10
2023-01-27T06:02:11.561Z,9.90
2023-01-27T06:05:00.424Z,7.80
2023-01-27T06:07:49.163Z,9.10
2023-01-27T06:10:38.099Z,8.90
2023-01-27T06:13:27.017Z,8.60
2023-01-27T06:16:20.013Z,8.40
2023-01-27T06:19:10.629Z,8.40
2023-01-27T06:22:00.144Z,7.90
2023-01-27T06:24:48.872Z,8.30
2023-01-27T06:27:38.633Z,8.80
2023-01-27T06:30:27.471Z,7.50
2023-01-27T06:33:16.210Z,7.20
2023-01-27T06:36:09.114Z,8.80
2023-01-27T06:38:58.177Z,8.50
2023-01-27T06:41:46.891Z,8.80
2023-01-27T06:44:37.453Z,10.20
2023-01-27T06:47:26.143Z,8.10
2023-01-27T06:50:15.125Z,8.80
2023-01-27T06:53:05.785Z,8.30
2023-01-27T06:55:58.865Z,10.20
2023-01-27T06:58:47.700Z,8.40
2023-01-27T07:01:36.490Z,8.40
2023-01-27T07:04:25.200Z,10.30
2023-01-27T07:07:13.942Z,9.00
2023-01-27T07:10:03.768Z,8.80
2023-01-27T07:12:52.625Z,10.20
2023-01-27T07:15:41.470Z,10.10
2023-01-27T07:18:30.232Z,8.70
2023-01-27T07:21:18.976Z,8.10
2023-01-27T07:24:08.017Z,9.10
2023-01-27T07:26:56.725Z,8.10
2023-01-27T07:29:45.347Z,8.70
2023-01-27T07:32:34.026Z,8.90
2023-01-27T07:35:23.305Z,9.10
2023-01-27T07:38:12.172Z,8.70
2023-01-27T07:41:04.209Z,9.20
2023-01-27T07:43:53.169Z,11.20
2023-01-27T07:46:42.036Z,10.00
2023-01-27T07:49:32.157Z,10.70
2023-01-27T07:52:20.816Z,9.30
2023-01-27T07:55:09.908Z,10.10
2023-01-27T07:57:58.600Z,17.90
2023-01-27T08:00:47.375Z,10.40
2023-01-27T08:03:36.491Z,32.70
2023-01-27T08:06:29.167Z,17.10
2023-01-27T08:09:17.862Z,18.00
2023-01-27T08:12:07.981Z,12.70
2023-01-27T08:14:56.725Z,10.00
2023-01-27T08:17:57.080Z,11.60
2023-01-27T08:20:46.436Z,9.80
2023-01-27T08:23:35.267Z,9.50
2023-01-27T08:26:24.059Z,10.30
2023-01-27T08:29:12.708Z,8.80
2023-01-27T08:32:01.664Z,8.10
2023-01-27T08:34:50.982Z,9.00
2023-01-27T08:37:44.277Z,8.40
2023-01-27T08:40:34.349Z,8.80
2023-01-27T08:43:23.400Z,10.60
2023-01-27T08:46:12.367Z,12.60
2023-01-27T08:49:01.261Z,11.30
2023-01-27T08:51:50.091Z,10.00
2023-01-27T08:54:38.764Z,10.50
2023-01-27T08:57:27.562Z,10.80
2023-01-27T09:00:16.807Z,12.00
2023-01-27T09:03:05.848Z,9.80
2023-01-27T09:05:54.495Z,9.30
2023-01-27T09:08:43.412Z,9.90
2023-01-27T09:11:32.056Z,10.60
2023-01-27T09:14:22.793Z,8.60
2023-01-27T09:17:11.703Z,10.50
2023-01-27T09:20:00.474Z,9.30
2023-01-27T09:22:50.006Z,9.60
2023-01-27T09:25:39.954Z,11.50
2023-01-27T09:28:28.812Z,13.20
2023-01-27T09:31:18.466Z,10.30
2023-01-27T09:34:07.226Z,9.80
2023-01-27T09:37:01.499Z,9.60
2023-01-27T09:39:51.765Z,9.30
2023-01-27T09:42:51.410Z,10.40
2023-01-27T09:45:54.764Z,11.40
2023-01-27T09:48:49.620Z,10.30
2023-01-27T09:51:43.127Z,10.20
2023-01-27T09:54:48.905Z,9.10
2023-01-27T09:57:44.403Z,9.50
2023-01-27T10:01:03.275Z,8.70
2023-01-27T12:04:59.906Z,10.70
2023-01-27T12:07:56.420Z,13.60
2023-01-27T12:10:46.934Z,13.00
2023-01-27T12:13:36.331Z,11.20
2023-01-27T12:16:27.975Z,11.30
2023-01-27T12:19:26.035Z,10.60
2023-01-27T12:22:41.088Z,10.90
2023-01-27T12:25:32.476Z,11.20
2023-01-27T12:28:33.490Z,8.90
2023-01-27T12:31:29.539Z,11.20
2023-01-27T12:34:32.947Z,10.70
2023-01-27T12:37:24.627Z,9.90
2023-01-27T12:40:19.558Z,10.00
2023-01-27T12:43:16.357Z,11.60
2023-01-27T12:46:11.151Z,10.60
2023-01-27T12:49:10.304Z,11.10
2023-01-27T12:52:05.040Z,10.40
2023-01-27T12:54:57.022Z,10.70
2023-01-27T12:57:45.858Z,10.30
2023-01-27T13:00:34.886Z,10.80
2023-01-27T13:03:24.184Z,9.80
2023-01-27T13:06:18.769Z,12.20
2023-01-27T13:09:20.359Z,11.50
2023-01-27T13:12:25.343Z,11.00
2023-01-27T13:15:19.350Z,9.90
2023-01-27T13:18:20.306Z,11.90
2023-01-27T13:21:18.819Z,13.70
2023-01-27T13:24:12.850Z,12.40
2023-01-27T13:27:02.789Z,12.10
2023-01-27T13:30:07.583Z,10.50
2023-01-27T13:32:59.521Z,11.90
2023-01-27T13:36:23.396Z,11.30
2023-01-27T13:39:39.165Z,11.30
2023-01-27T13:42:41.475Z,12.50
2023-01-27T13:45:40.672Z,10.90
2023-01-27T13:48:30.059Z,11.20
2023-01-27T13:51:20.694Z,10.80
2023-01-27T13:54:10.006Z,10.50
2023-01-27T13:57:32.662Z,11.30
2023-01-27T14:00:24.068Z,11.90
2023-01-27T14:03:34.704Z,12.40
2023-01-27T14:06:35.914Z,11.60
2023-01-27T14:09:34.032Z,12.60
2023-01-27T14:12:33.662Z,12.40
2023-01-27T14:15:24.648Z,12.20
2023-01-27T14:18:21.063Z,12.80
2023-01-27T14:21:49.645Z,11.30
2023-01-27T14:24:59.965Z,11.40
2023-01-27T14:31:20.981Z,13.00
2023-01-27T14:34:35.524Z,12.70
2023-01-27T14:37:24.108Z,13.50
2023-01-27T14:40:21.478Z,12.70
2023-01-27T14:43:26.756Z,13.00
2023-01-27T14:46:42.097Z,15.70
2023-01-27T14:49:55.675Z,17.20
2023-01-27T14:52:55.476Z,15.70
2023-01-27T14:55:48.743Z,12.50
2023-01-27T14:58:54.111Z,13.50
2023-01-27T15:01:56.622Z,14.90
2023-01-27T15:04:55.444Z,15.90
2023-01-27T15:08:39.821Z,15.60
2023-01-27T15:11:44.872Z,13.00
2023-01-27T15:15:03.136Z,13.30
2023-01-27T15:18:20.735Z,12.70
2023-01-27T15:21:09.418Z,16.90
2023-01-27T15:24:03.847Z,17.10
2023-01-27T15:26:52.832Z,17.70
2023-01-27T15:29:41.433Z,17.40
2023-01-27T15:32:37.072Z,16.40
2023-01-27T15:35:26.589Z,15.00
2023-01-27T15:38:20.344Z,15.90
2023-01-27T15:41:12.292Z,15.00
2023-01-27T15:44:18.054Z,16.10
2023-01-27T15:47:15.097Z,15.70
2023-01-27T15:50:06.994Z,16.60
2023-01-27T15:53:04.114Z,21.70
2023-01-27T15:55:54.479Z,17.90
2023-01-27T18:09:28.599Z,15.10
2023-01-27T18:12:34.448Z,14.30
2023-01-27T18:15:41.293Z,13.00
2023-01-27T18:18:32.236Z,12.40
2023-01-27T18:21:25.179Z,13.30
2023-01-27T18:24:20.331Z,13.90
2023-01-27T18:27:22.395Z,13.50
2023-01-27T18:30:20.533Z,12.10
2023-01-27T18:33:10.426Z,10.90
2023-01-27T18:35:59.963Z,12.90
2023-01-27T18:38:50.715Z,10.90
2023-01-27T18:41:45.913Z,10.40
2023-01-27T18:44:35.910Z,10.60
2023-01-27T18:47:35.048Z,13.00
2023-01-27T18:50:25.212Z,11.40
2023-01-27T18:53:16.357Z,13.00
2023-01-27T18:56:05.629Z,10.50
2023-01-27T18:58:55.220Z,10.60
2023-01-27T19:01:44.185Z,10.40
2023-01-27T19:04:32.938Z,10.20
2023-01-27T19:07:21.743Z,12.50
2023-01-27T19:10:37.157Z,13.00
2023-01-27T19:13:26.291Z,12.20
2023-01-27T19:16:16.409Z,12.20
2023-01-27T19:19:06.385Z,12.20
2023-01-27T19:21:55.108Z,11.20
2023-01-27T19:24:45.622Z,13.20
2023-01-27T19:27:34.374Z,12.10
2023-01-27T19:30:25.706Z,12.20
2023-01-27T19:33:19.537Z,10.30
2023-01-27T19:36:20.932Z,11.70
2023-01-27T19:39:15.384Z,12.30
2023-01-27T19:42:04.478Z,11.50
2023-01-27T19:44:53.218Z,11.90
2023-01-27T19:47:45.192Z,12.50
2023-01-27T19:50:34.183Z,8.80
2023-01-27T19:53:24.783Z,11.30
2023-01-27T19:56:18.163Z,11.40
2023-01-27T19:59:06.957Z,12.20
2023-01-27T20:01:57.043Z,13.30
2023-01-27T20:04:45.944Z,12.20
2023-01-27T20:07:34.764Z,12.40
2023-01-27T20:10:24.481Z,13.10
2023-01-27T20:13:15.515Z,12.90
2023-01-27T20:16:04.329Z,12.00
2023-01-27T20:18:53.951Z,12.60
2023-01-27T20:21:43.500Z,13.70
2023-01-27T20:24:32.468Z,12.10
2023-01-27T20:27:21.462Z,11.30
2023-01-27T20:30:15.116Z,12.40
2023-01-27T20:33:04.106Z,11.50
2023-01-27T20:35:52.790Z,11.20
2023-01-27T20:38:43.224Z,11.40
2023-01-27T20:41:34.033Z,11.40
2023-01-27T20:44:22.871Z,12.80
2023-01-27T20:47:11.620Z,14.00
2023-01-27T20:50:02.159Z,12.30
2023-01-27T20:52:50.984Z,13.40
2023-01-27T20:55:40.031Z,13.50
2023-01-27T20:58:29.005Z,12.00
2023-01-27T21:01:21.983Z,12.70
2023-01-27T21:06:59.377Z,10.30
2023-01-27T21:09:49.054Z,10.10
2023-01-27T21:12:57.675Z,11.50
2023-01-27T21:15:47.765Z,12.70
2023-01-27T21:18:36.982Z,12.20
2023-01-27T21:21:27.528Z,13.30
2023-01-27T21:24:16.348Z,10.60
2023-01-27T21:27:05.531Z,12.20
2023-01-27T21:29:54.366Z,11.20
2023-01-27T21:32:43.078Z,11.90
2023-01-27T21:35:32.507Z,11.20
2023-01-27T21:38:21.412Z,11.60
2023-01-27T21:41:14.648Z,11.80
2023-01-27T21:44:22.057Z,11.30
2023-01-27T21:47:13.294Z,10.50
2023-01-27T21:50:02.113Z,12.10
2023-01-27T21:52:51.046Z,12.30
2023-01-27T21:55:39.907Z,11.00
2023-01-27T21:58:32.979Z,13.90
2023-01-27T22:01:21.695Z,11.90
2023-01-27T22:04:10.501Z,13.00
2023-01-27T22:06:59.189Z,11.30
2023-01-27T22:09:48.060Z,12.10
2023-01-27T22:12:36.725Z,15.20
2023-01-27T22:15:25.769Z,13.20
2023-01-27T22:18:15.175Z,12.80
2023-01-27T22:21:04.066Z,14.20
2023-01-27T22:23:52.820Z,12.20
2023-01-27T22:26:41.642Z,13.80
2023-01-27T22:29:31.242Z,12.40
2023-01-27T22:32:20.370Z,12.40
2023-01-27T22:35:09.462Z,12.40
2023-01-27T22:37:58.124Z,12.90
2023-01-27T22:40:55.723Z,11.80
2023-01-27T22:43:44.526Z,11.30
2023-01-27T22:46:33.401Z,11.40
2023-01-27T22:49:22.107Z,11.70
2023-01-27T22:52:10.815Z,13.30
2023-01-27T22:54:59.620Z,13.20
2023-01-27T22:57:48.801Z,11.90
2023-01-27T23:00:37.674Z,15.10
2023-01-27T23:03:26.888Z,12.10
2023-01-27T23:06:15.565Z,13.20
2023-01-27T23:09:04.645Z,11.60
2023-01-27T23:11:53.557Z,13.40
2023-01-27T23:14:42.582Z,13.00
2023-01-27T23:17:31.935Z,14.80
2023-01-27T23:20:20.685Z,12.60
2023-01-27T23:23:09.763Z,13.80
2023-01-27T23:25:59.154Z,11.80
2023-01-27T23:28:47.835Z,13.20
2023-01-27T23:31:36.743Z,13.20
2023-01-27T23:34:25.655Z,12.20
2023-01-27T23:37:14.277Z,11.70
2023-01-27T23:40:04.244Z,11.70
2023-01-27T23:42:52.947Z,13.90
2023-01-27T23:45:41.870Z,12.50
2023-01-27T23:48:31.810Z,12.00
2023-01-27T23:51:21.063Z,13.10
2023-01-27T23:54:09.685Z,11.80
2023-01-27T23:56:58.381Z,12.30
2023-01-27T23:59:47.334Z,13.70
